sensor_id;sensor_type;location;lat;lon;timestamp;pressure;altitude;pressure_sealevel;temperature;humidity
24752;BME280;27246;52.376;4.628;2022-12-07T00:00:25;101743.97;;;5.52;93.65
24752;BME280;27246;52.376;4.628;2022-12-07T00:05:29;101754.03;;;5.51;93.90
24752;BME280;27246;52.376;4.628;2022-12-07T00:10:33;101749.81;;;5.47;93.79
24752;BME280;27246;52.376;4.628;2022-12-07T00:15:35;101750.56;;;5.49;93.72
24752;BME280;27246;52.376;4.628;2022-12-07T00:20:37;101744.25;;;5.49;93.57
24752;BME280;27246;52.376;4.628;2022-12-07T00:25:38;101741.00;;;5.44;92.80
24752;BME280;27246;52.376;4.628;2022-12-07T00:30:40;101734.81;;;5.41;93.06
24752;BME280;27246;52.376;4.628;2022-12-07T00:35:41;101736.16;;;5.47;92.50
24752;BME280;27246;52.376;4.628;2022-12-07T00:40:43;101721.47;;;5.48;92.25
24752;BME280;27246;52.376;4.628;2022-12-07T00:45:45;101718.63;;;5.50;92.54
24752;BME280;27246;52.376;4.628;2022-12-07T00:50:47;101724.63;;;5.44;92.54
24752;BME280;27246;52.376;4.628;2022-12-07T00:55:49;101731.22;;;5.41;92.99
24752;BME280;27246;52.376;4.628;2022-12-07T01:00:51;101726.72;;;5.40;92.80
24752;BME280;27246;52.376;4.628;2022-12-07T01:05:54;101742.25;;;5.51;92.90
24752;BME280;27246;52.376;4.628;2022-12-07T01:11:04;101739.88;;;5.46;91.95
24752;BME280;27246;52.376;4.628;2022-12-07T01:16:10;101735.44;;;5.66;92.62
24752;BME280;27246;52.376;4.628;2022-12-07T01:21:18;101734.47;;;5.67;92.11
24752;BME280;27246;52.376;4.628;2022-12-07T01:26:25;101730.25;;;5.63;92.74
24752;BME280;27246;52.376;4.628;2022-12-07T01:31:28;101722.81;;;5.65;92.65
24752;BME280;27246;52.376;4.628;2022-12-07T01:36:32;101723.94;;;5.63;93.07
24752;BME280;27246;52.376;4.628;2022-12-07T01:41:37;101719.56;;;5.60;93.99
24752;BME280;27246;52.376;4.628;2022-12-07T01:46:43;101730.91;;;5.55;94.35
24752;BME280;27246;52.376;4.628;2022-12-07T01:51:46;101722.72;;;5.55;94.75
24752;BME280;27246;52.376;4.628;2022-12-07T01:56:53;101723.56;;;5.56;94.88
24752;BME280;27246;52.376;4.628;2022-12-07T02:01:56;101710.19;;;5.53;94.92
24752;BME280;27246;52.376;4.628;2022-12-07T02:06:58;101715.16;;;5.48;94.71
24752;BME280;27246;52.376;4.628;2022-12-07T02:12:00;101699.03;;;5.45;93.73
24752;BME280;27246;52.376;4.628;2022-12-07T02:17:16;101698.44;;;5.62;92.99
24752;BME280;27246;52.376;4.628;2022-12-07T02:22:35;101699.66;;;5.69;92.01
24752;BME280;27246;52.376;4.628;2022-12-07T02:28:05;101692.66;;;5.76;91.31
24752;BME280;27246;52.376;4.628;2022-12-07T02:33:16;101686.47;;;5.74;90.09
24752;BME280;27246;52.376;4.628;2022-12-07T02:38:26;101683.00;;;5.72;88.89
24752;BME280;27246;52.376;4.628;2022-12-07T02:43:40;101679.41;;;5.72;88.21
24752;BME280;27246;52.376;4.628;2022-12-07T02:48:43;101684.00;;;5.71;87.91
24752;BME280;27246;52.376;4.628;2022-12-07T02:53:46;101673.06;;;5.71;86.24
24752;BME280;27246;52.376;4.628;2022-12-07T03:05:02;101684.63;;;5.75;83.56
24752;BME280;27246;52.376;4.628;2022-12-07T03:20:45;101679.19;;;5.85;82.93
24752;BME280;27246;52.376;4.628;2022-12-07T03:25:55;101682.66;;;5.87;83.02
24752;BME280;27246;52.376;4.628;2022-12-07T03:31:21;101681.53;;;5.89;83.33
24752;BME280;27246;52.376;4.628;2022-12-07T03:36:30;101682.66;;;5.87;83.07
24752;BME280;27246;52.376;4.628;2022-12-07T03:41:34;101679.06;;;5.86;82.38
24752;BME280;27246;52.376;4.628;2022-12-07T03:47:05;101685.63;;;5.95;81.51
24752;BME280;27246;52.376;4.628;2022-12-07T03:57:28;101662.41;;;5.89;81.29
24752;BME280;27246;52.376;4.628;2022-12-07T04:02:31;101664.00;;;5.92;82.14
24752;BME280;27246;52.376;4.628;2022-12-07T04:07:36;101664.53;;;5.86;80.93
24752;BME280;27246;52.376;4.628;2022-12-07T04:12:37;101659.00;;;5.97;80.29
24752;BME280;27246;52.376;4.628;2022-12-07T04:17:39;101652.50;;;5.98;78.96
24752;BME280;27246;52.376;4.628;2022-12-07T04:22:41;101656.41;;;5.95;78.81
24752;BME280;27246;52.376;4.628;2022-12-07T04:27:43;101654.19;;;5.89;79.02
24752;BME280;27246;52.376;4.628;2022-12-07T04:32:44;101653.25;;;6.00;80.63
24752;BME280;27246;52.376;4.628;2022-12-07T04:37:46;101650.38;;;6.01;80.91
24752;BME280;27246;52.376;4.628;2022-12-07T04:42:47;101644.50;;;6.06;80.00
24752;BME280;27246;52.376;4.628;2022-12-07T04:47:49;101651.97;;;6.04;79.07
24752;BME280;27246;52.376;4.628;2022-12-07T04:52:51;101670.44;;;6.43;78.88
24752;BME280;27246;52.376;4.628;2022-12-07T04:57:52;101669.22;;;6.56;78.41
24752;BME280;27246;52.376;4.628;2022-12-07T05:02:54;101651.72;;;6.07;81.27
24752;BME280;27246;52.376;4.628;2022-12-07T05:07:56;101650.38;;;6.01;83.67
24752;BME280;27246;52.376;4.628;2022-12-07T05:12:58;101645.59;;;5.94;84.33
24752;BME280;27246;52.376;4.628;2022-12-07T05:17:59;101646.25;;;5.86;85.48
24752;BME280;27246;52.376;4.628;2022-12-07T05:23:01;101632.88;;;5.83;86.79
24752;BME280;27246;52.376;4.628;2022-12-07T05:28:04;101633.00;;;5.81;87.37
24752;BME280;27246;52.376;4.628;2022-12-07T05:33:06;101649.81;;;5.77;87.69
24752;BME280;27246;52.376;4.628;2022-12-07T05:38:08;101643.97;;;5.70;88.63
24752;BME280;27246;52.376;4.628;2022-12-07T05:43:09;101639.22;;;5.63;89.25
24752;BME280;27246;52.376;4.628;2022-12-07T05:48:11;101639.06;;;5.64;90.19
24752;BME280;27246;52.376;4.628;2022-12-07T05:53:13;101641.53;;;5.67;90.40
24752;BME280;27246;52.376;4.628;2022-12-07T05:58:23;101631.34;;;5.69;91.02
24752;BME280;27246;52.376;4.628;2022-12-07T06:03:43;101632.06;;;5.71;91.30
24752;BME280;27246;52.376;4.628;2022-12-07T06:08:46;101626.00;;;5.68;91.17
24752;BME280;27246;52.376;4.628;2022-12-07T06:13:48;101626.84;;;5.68;90.85
24752;BME280;27246;52.376;4.628;2022-12-07T06:18:49;101637.06;;;5.66;87.16
24752;BME280;27246;52.376;4.628;2022-12-07T06:23:51;101646.72;;;5.70;85.81
24752;BME280;27246;52.376;4.628;2022-12-07T06:28:53;101634.50;;;5.74;85.21
24752;BME280;27246;52.376;4.628;2022-12-07T06:34:03;101642.59;;;5.76;85.21
24752;BME280;27246;52.376;4.628;2022-12-07T06:39:05;101640.25;;;5.71;85.26
24752;BME280;27246;52.376;4.628;2022-12-07T06:44:07;101645.00;;;5.69;86.42
24752;BME280;27246;52.376;4.628;2022-12-07T06:49:09;101646.16;;;5.67;87.52
24752;BME280;27246;52.376;4.628;2022-12-07T06:54:12;101650.06;;;5.53;87.61
24752;BME280;27246;52.376;4.628;2022-12-07T06:59:14;101651.03;;;5.52;88.59
24752;BME280;27246;52.376;4.628;2022-12-07T07:04:16;101649.56;;;5.48;88.57
24752;BME280;27246;52.376;4.628;2022-12-07T07:09:18;101651.16;;;5.50;89.65
24752;BME280;27246;52.376;4.628;2022-12-07T07:14:20;101638.66;;;5.48;89.04
24752;BME280;27246;52.376;4.628;2022-12-07T07:19:22;101645.91;;;5.37;88.68
24752;BME280;27246;52.376;4.628;2022-12-07T07:24:24;101643.78;;;5.41;88.06
24752;BME280;27246;52.376;4.628;2022-12-07T07:29:26;101659.38;;;5.50;86.01
24752;BME280;27246;52.376;4.628;2022-12-07T07:34:27;101660.91;;;5.64;83.58
24752;BME280;27246;52.376;4.628;2022-12-07T07:39:29;101661.84;;;5.74;83.24
24752;BME280;27246;52.376;4.628;2022-12-07T07:44:31;101648.38;;;5.82;82.68
24752;BME280;27246;52.376;4.628;2022-12-07T07:49:35;101639.53;;;5.69;82.33
24752;BME280;27246;52.376;4.628;2022-12-07T07:54:37;101641.97;;;5.72;82.27
24752;BME280;27246;52.376;4.628;2022-12-07T07:59:39;101640.59;;;5.78;82.62
24752;BME280;27246;52.376;4.628;2022-12-07T08:04:41;101640.53;;;5.68;81.77
24752;BME280;27246;52.376;4.628;2022-12-07T08:09:43;101645.81;;;5.81;82.10
24752;BME280;27246;52.376;4.628;2022-12-07T08:14:44;101649.44;;;5.70;82.42
24752;BME280;27246;52.376;4.628;2022-12-07T08:19:49;101662.59;;;5.76;82.76
24752;BME280;27246;52.376;4.628;2022-12-07T08:24:51;101667.13;;;6.08;82.02
24752;BME280;27246;52.376;4.628;2022-12-07T08:29:53;101666.31;;;6.17;82.38
24752;BME280;27246;52.376;4.628;2022-12-07T08:34:55;101673.53;;;5.76;81.64
24752;BME280;27246;52.376;4.628;2022-12-07T08:39:56;101666.59;;;5.51;82.54
24752;BME280;27246;52.376;4.628;2022-12-07T08:44:58;101668.91;;;5.56;83.66
24752;BME280;27246;52.376;4.628;2022-12-07T08:50:00;101668.91;;;5.56;83.83
24752;BME280;27246;52.376;4.628;2022-12-07T08:55:05;101663.53;;;5.66;84.70
24752;BME280;27246;52.376;4.628;2022-12-07T09:00:08;101664.38;;;5.66;84.56
24752;BME280;27246;52.376;4.628;2022-12-07T09:05:11;101653.06;;;5.71;85.08
24752;BME280;27246;52.376;4.628;2022-12-07T09:10:17;101647.59;;;5.71;85.28
24752;BME280;27246;52.376;4.628;2022-12-07T09:15:19;101649.06;;;5.75;85.64
24752;BME280;27246;52.376;4.628;2022-12-07T09:20:21;101648.25;;;5.84;86.01
24752;BME280;27246;52.376;4.628;2022-12-07T09:25:28;101647.59;;;5.92;85.74
24752;BME280;27246;52.376;4.628;2022-12-07T09:30:32;101656.25;;;5.97;86.07
24752;BME280;27246;52.376;4.628;2022-12-07T09:35:54;101653.38;;;5.98;85.83
24752;BME280;27246;52.376;4.628;2022-12-07T09:40:56;101653.97;;;6.02;87.03
24752;BME280;27246;52.376;4.628;2022-12-07T09:45:58;101653.25;;;6.00;86.98
24752;BME280;27246;52.376;4.628;2022-12-07T09:51:00;101659.72;;;5.99;86.71
24752;BME280;27246;52.376;4.628;2022-12-07T09:56:03;101656.03;;;6.10;87.59
24752;BME280;27246;52.376;4.628;2022-12-07T10:01:22;101655.19;;;6.09;87.53
24752;BME280;27246;52.376;4.628;2022-12-07T10:06:24;101642.06;;;6.13;88.13
24752;BME280;27246;52.376;4.628;2022-12-07T10:11:26;101640.06;;;6.15;88.92
24752;BME280;27246;52.376;4.628;2022-12-07T10:16:38;101630.94;;;6.26;89.34
24752;BME280;27246;52.376;4.628;2022-12-07T10:22:11;101638.78;;;6.19;88.63
24752;BME280;27246;52.376;4.628;2022-12-07T10:37:21;101621.88;;;6.25;86.66
24752;BME280;27246;52.376;4.628;2022-12-07T10:42:29;101615.41;;;6.36;87.60
24752;BME280;27246;52.376;4.628;2022-12-07T10:47:33;101611.66;;;6.37;84.71
24752;BME280;27246;52.376;4.628;2022-12-07T11:15:07;101596.63;;;6.62;77.17
24752;BME280;27246;52.376;4.628;2022-12-07T11:20:29;101592.41;;;6.48;76.90
24752;BME280;27246;52.376;4.628;2022-12-07T11:25:48;101581.03;;;6.53;77.31
24752;BME280;27246;52.376;4.628;2022-12-07T11:36:45;101570.69;;;6.66;77.14
24752;BME280;27246;52.376;4.628;2022-12-07T11:42:05;101556.31;;;6.74;77.86
24752;BME280;27246;52.376;4.628;2022-12-07T11:47:16;101550.25;;;6.80;77.70
24752;BME280;27246;52.376;4.628;2022-12-07T11:52:45;101543.47;;;7.04;77.28
24752;BME280;27246;52.376;4.628;2022-12-07T11:57:54;101541.31;;;6.97;78.38
24752;BME280;27246;52.376;4.628;2022-12-07T12:03:05;101545.91;;;6.97;77.45
24752;BME280;27246;52.376;4.628;2022-12-07T12:08:23;101535.69;;;7.09;76.71
24752;BME280;27246;52.376;4.628;2022-12-07T12:14:14;101547.94;;;7.14;77.58
24752;BME280;27246;52.376;4.628;2022-12-07T12:25:05;101542.88;;;7.19;79.02
24752;BME280;27246;52.376;4.628;2022-12-07T12:40:39;101527.72;;;6.37;81.55
24752;BME280;27246;52.376;4.628;2022-12-07T12:45:49;101521.88;;;6.21;83.84
24752;BME280;27246;52.376;4.628;2022-12-07T13:01:53;101481.31;;;6.36;85.66
24752;BME280;27246;52.376;4.628;2022-12-07T13:06:56;101485.34;;;6.32;84.61
24752;BME280;27246;52.376;4.628;2022-12-07T13:12:11;101470.09;;;6.39;84.51
24752;BME280;27246;52.376;4.628;2022-12-07T13:27:41;101459.44;;;6.36;86.70
24752;BME280;27246;52.376;4.628;2022-12-07T13:32:56;101451.22;;;6.26;85.22
24752;BME280;27246;52.376;4.628;2022-12-07T13:38:02;101437.84;;;6.43;85.36
24752;BME280;27246;52.376;4.628;2022-12-07T13:43:14;101436.69;;;6.55;84.53
24752;BME280;27246;52.376;4.628;2022-12-07T13:53:23;101439.00;;;6.59;77.62
24752;BME280;27246;52.376;4.628;2022-12-07T13:58:30;101422.72;;;6.68;77.55
24752;BME280;27246;52.376;4.628;2022-12-07T14:03:34;101420.53;;;6.71;78.07
24752;BME280;27246;52.376;4.628;2022-12-07T14:08:38;101426.16;;;6.50;77.97
24752;BME280;27246;52.376;4.628;2022-12-07T14:13:56;101424.28;;;6.60;77.95
24752;BME280;27246;52.376;4.628;2022-12-07T14:19:02;101421.41;;;6.72;77.06
24752;BME280;27246;52.376;4.628;2022-12-07T14:29:37;101410.75;;;6.69;77.48
24752;BME280;27246;52.376;4.628;2022-12-07T14:34:38;101406.00;;;6.71;77.47
24752;BME280;27246;52.376;4.628;2022-12-07T14:39:40;101407.88;;;6.70;78.06
24752;BME280;27246;52.376;4.628;2022-12-07T14:44:42;101404.41;;;6.68;77.66
24752;BME280;27246;52.376;4.628;2022-12-07T14:49:44;101406.00;;;6.61;76.61
24752;BME280;27246;52.376;4.628;2022-12-07T14:54:46;101402.41;;;6.51;74.91
24752;BME280;27246;52.376;4.628;2022-12-07T14:59:47;101399.25;;;6.55;75.92
24752;BME280;27246;52.376;4.628;2022-12-07T15:04:49;101390.88;;;6.57;76.03
24752;BME280;27246;52.376;4.628;2022-12-07T15:09:51;101388.56;;;6.52;76.06
24752;BME280;27246;52.376;4.628;2022-12-07T15:14:53;101385.69;;;6.54;76.91
24752;BME280;27246;52.376;4.628;2022-12-07T15:19:55;101387.84;;;6.50;76.39
24752;BME280;27246;52.376;4.628;2022-12-07T15:24:57;101379.34;;;6.53;75.66
24752;BME280;27246;52.376;4.628;2022-12-07T15:29:59;101375.34;;;6.57;75.16
24752;BME280;27246;52.376;4.628;2022-12-07T15:35:01;101370.25;;;6.63;75.18
24752;BME280;27246;52.376;4.628;2022-12-07T15:40:03;101369.41;;;6.62;74.91
24752;BME280;27246;52.376;4.628;2022-12-07T15:45:11;101357.75;;;6.60;75.56
24752;BME280;27246;52.376;4.628;2022-12-07T15:50:16;101356.00;;;6.69;75.96
24752;BME280;27246;52.376;4.628;2022-12-07T15:55:18;101351.81;;;6.65;75.30
24752;BME280;27246;52.376;4.628;2022-12-07T16:00:20;101349.94;;;6.65;75.31
24752;BME280;27246;52.376;4.628;2022-12-07T16:05:21;101339.03;;;6.55;75.16
24752;BME280;27246;52.376;4.628;2022-12-07T16:10:23;101339.91;;;6.36;75.49
24752;BME280;27246;52.376;4.628;2022-12-07T16:15:25;101333.13;;;6.31;75.84
24752;BME280;27246;52.376;4.628;2022-12-07T16:20:28;101325.94;;;6.30;76.19
24752;BME280;27246;52.376;4.628;2022-12-07T16:25:30;101320.16;;;6.33;76.24
24752;BME280;27246;52.376;4.628;2022-12-07T16:30:31;101326.66;;;6.22;71.98
24752;BME280;27246;52.376;4.628;2022-12-07T16:35:58;101327.25;;;6.26;74.89
24752;BME280;27246;52.376;4.628;2022-12-07T16:41:04;101316.00;;;6.29;78.32
24752;BME280;27246;52.376;4.628;2022-12-07T16:46:06;101318.72;;;6.29;79.43
24752;BME280;27246;52.376;4.628;2022-12-07T16:51:09;101313.84;;;6.22;79.07
24752;BME280;27246;52.376;4.628;2022-12-07T16:56:13;101301.31;;;6.20;79.37
24752;BME280;27246;52.376;4.628;2022-12-07T17:01:17;101312.53;;;6.17;78.49
24752;BME280;27246;52.376;4.628;2022-12-07T17:06:22;101302.75;;;6.14;77.66
24752;BME280;27246;52.376;4.628;2022-12-07T17:11:27;101292.41;;;6.08;77.67
24752;BME280;27246;52.376;4.628;2022-12-07T17:16:29;101284.91;;;6.10;77.09
24752;BME280;27246;52.376;4.628;2022-12-07T17:21:34;101298.00;;;6.16;77.08
24752;BME280;27246;52.376;4.628;2022-12-07T17:26:37;101296.75;;;6.01;78.82
24752;BME280;27246;52.376;4.628;2022-12-07T17:31:39;101297.84;;;5.89;80.18
24752;BME280;27246;52.376;4.628;2022-12-07T17:36:48;101290.69;;;5.88;81.46
24752;BME280;27246;52.376;4.628;2022-12-07T17:41:50;101276.44;;;5.84;82.33
24752;BME280;27246;52.376;4.628;2022-12-07T17:47:10;101280.31;;;5.91;82.61
24752;BME280;27246;52.376;4.628;2022-12-07T17:52:12;101267.38;;;5.84;83.63
24752;BME280;27246;52.376;4.628;2022-12-07T17:57:33;101258.16;;;5.85;82.09
24752;BME280;27246;52.376;4.628;2022-12-07T18:02:35;101262.63;;;5.86;81.86
24752;BME280;27246;52.376;4.628;2022-12-07T18:07:36;101249.22;;;5.82;82.05
24752;BME280;27246;52.376;4.628;2022-12-07T18:12:41;101242.63;;;5.85;82.60
24752;BME280;27246;52.376;4.628;2022-12-07T18:17:49;101242.63;;;5.75;81.70
24752;BME280;27246;52.376;4.628;2022-12-07T18:22:52;101235.41;;;5.84;82.71
24752;BME280;27246;52.376;4.628;2022-12-07T18:27:54;101242.75;;;5.84;82.39
24752;BME280;27246;52.376;4.628;2022-12-07T18:32:55;101248.09;;;5.85;82.24
24752;BME280;27246;52.376;4.628;2022-12-07T18:37:58;101252.38;;;5.68;80.66
24752;BME280;27246;52.376;4.628;2022-12-07T18:42:59;101263.88;;;5.52;80.81
24752;BME280;27246;52.376;4.628;2022-12-07T18:48:01;101261.56;;;5.48;81.43
24752;BME280;27246;52.376;4.628;2022-12-07T18:53:04;101256.69;;;5.41;80.86
24752;BME280;27246;52.376;4.628;2022-12-07T18:58:09;101249.91;;;5.26;80.01
24752;BME280;27246;52.376;4.628;2022-12-07T19:03:11;101241.44;;;5.39;81.43
24752;BME280;27246;52.376;4.628;2022-12-07T19:08:14;101219.72;;;5.37;82.21
24752;BME280;27246;52.376;4.628;2022-12-07T19:13:16;101224.03;;;5.50;82.50
24752;BME280;27246;52.376;4.628;2022-12-07T19:18:17;101219.03;;;5.55;83.23
24752;BME280;27246;52.376;4.628;2022-12-07T19:23:19;101197.75;;;5.49;82.79
24752;BME280;27246;52.376;4.628;2022-12-07T19:28:23;101190.53;;;5.48;82.05
24752;BME280;27246;52.376;4.628;2022-12-07T19:33:27;101192.41;;;5.47;82.08
24752;BME280;27246;52.376;4.628;2022-12-07T19:38:30;101193.28;;;5.48;82.70
24752;BME280;27246;52.376;4.628;2022-12-07T19:43:33;101184.50;;;5.54;81.96
24752;BME280;27246;52.376;4.628;2022-12-07T19:48:35;101183.34;;;5.66;83.28
24752;BME280;27246;52.376;4.628;2022-12-07T19:53:37;101177.88;;;5.66;83.39
24752;BME280;27246;52.376;4.628;2022-12-07T19:58:39;101171.41;;;5.67;84.54
24752;BME280;27246;52.376;4.628;2022-12-07T20:03:40;101161.78;;;5.73;85.18
24752;BME280;27246;52.376;4.628;2022-12-07T20:08:43;101160.03;;;5.62;84.45
24752;BME280;27246;52.376;4.628;2022-12-07T20:13:45;101144.53;;;5.53;84.24
24752;BME280;27246;52.376;4.628;2022-12-07T20:18:47;101149.56;;;5.48;84.48
24752;BME280;27246;52.376;4.628;2022-12-07T20:24:02;101145.97;;;5.47;85.25
24752;BME280;27246;52.376;4.628;2022-12-07T20:29:05;101134.00;;;5.48;85.53
24752;BME280;27246;52.376;4.628;2022-12-07T20:34:12;101131.88;;;5.52;86.79
24752;BME280;27246;52.376;4.628;2022-12-07T20:39:14;101127.84;;;5.56;86.61
24752;BME280;27246;52.376;4.628;2022-12-07T20:44:16;101120.94;;;5.52;86.46
24752;BME280;27246;52.376;4.628;2022-12-07T20:49:20;101119.50;;;5.48;87.43
24752;BME280;27246;52.376;4.628;2022-12-07T20:54:21;101110.31;;;5.49;87.19
24752;BME280;27246;52.376;4.628;2022-12-07T20:59:23;101100.66;;;5.54;87.15
24752;BME280;27246;52.376;4.628;2022-12-07T21:04:25;101095.47;;;5.61;87.48
24752;BME280;27246;52.376;4.628;2022-12-07T21:09:27;101099.91;;;5.62;87.15
24752;BME280;27246;52.376;4.628;2022-12-07T21:14:28;101093.47;;;5.63;85.08
24752;BME280;27246;52.376;4.628;2022-12-07T21:19:30;101097.63;;;5.67;81.62
24752;BME280;27246;52.376;4.628;2022-12-07T21:24:32;101094.44;;;5.72;80.24
24752;BME280;27246;52.376;4.628;2022-12-07T21:29:34;101087.97;;;5.73;78.71
24752;BME280;27246;52.376;4.628;2022-12-07T21:34:45;101074.59;;;5.60;78.92
24752;BME280;27246;52.376;4.628;2022-12-07T21:39:47;101072.72;;;5.70;78.53
24752;BME280;27246;52.376;4.628;2022-12-07T21:44:48;101075.16;;;5.73;78.18
24752;BME280;27246;52.376;4.628;2022-12-07T21:49:50;101064.25;;;5.73;78.76
24752;BME280;27246;52.376;4.628;2022-12-07T21:54:51;101061.50;;;5.73;78.57
24752;BME280;27246;52.376;4.628;2022-12-07T21:59:53;101057.22;;;5.71;79.29
24752;BME280;27246;52.376;4.628;2022-12-07T22:04:55;101050.13;;;5.78;80.39
24752;BME280;27246;52.376;4.628;2022-12-07T22:09:56;101045.69;;;5.77;80.96
24752;BME280;27246;52.376;4.628;2022-12-07T22:14:59;101039.75;;;5.81;81.79
24752;BME280;27246;52.376;4.628;2022-12-07T22:20:07;101032.53;;;5.80;81.94
24752;BME280;27246;52.376;4.628;2022-12-07T22:25:10;101031.84;;;5.78;81.64
24752;BME280;27246;52.376;4.628;2022-12-07T22:30:12;101026.66;;;5.85;81.83
24752;BME280;27246;52.376;4.628;2022-12-07T22:35:14;101017.75;;;5.83;80.50
24752;BME280;27246;52.376;4.628;2022-12-07T22:40:15;101026.47;;;5.87;81.38
24752;BME280;27246;52.376;4.628;2022-12-07T22:45:17;101019.88;;;5.89;79.51
24752;BME280;27246;52.376;4.628;2022-12-07T22:50:19;101025.91;;;5.93;77.42
24752;BME280;27246;52.376;4.628;2022-12-07T22:55:21;101025.34;;;5.89;78.86
24752;BME280;27246;52.376;4.628;2022-12-07T23:00:22;101021.22;;;5.75;79.59
24752;BME280;27246;52.376;4.628;2022-12-07T23:05:24;101005.63;;;5.86;79.14
24752;BME280;27246;52.376;4.628;2022-12-07T23:10:26;101002.09;;;5.75;78.93
24752;BME280;27246;52.376;4.628;2022-12-07T23:15:28;101004.09;;;5.73;79.44
24752;BME280;27246;52.376;4.628;2022-12-07T23:20:29;100990.63;;;5.52;80.07
24752;BME280;27246;52.376;4.628;2022-12-07T23:25:31;100983.16;;;5.54;81.50
24752;BME280;27246;52.376;4.628;2022-12-07T23:30:33;100964.31;;;5.61;82.51
24752;BME280;27246;52.376;4.628;2022-12-07T23:35:35;100960.13;;;5.67;83.18
24752;BME280;27246;52.376;4.628;2022-12-07T23:40:36;100955.19;;;5.70;83.24
24752;BME280;27246;52.376;4.628;2022-12-07T23:45:38;100956.22;;;5.69;83.93
24752;BME280;27246;52.376;4.628;2022-12-07T23:50:40;100963.50;;;5.78;83.23
24752;BME280;27246;52.376;4.628;2022-12-07T23:55:45;100944.81;;;5.74;80.40
